Time;durP1;ratioP1;P1;durP2;ratioP2;P2;SDS_P1;SDS_P2;PMS_P1;PMS_P2;Temp;Humidity;BMP_temperature;BMP_pressure;BME280_temperature;BME280_humidity;BME280_pressure;Samples;Min_cycle;Max_cycle;Signal;HPM_P1;HPM_P2
2021/11/13 00:01:36;;;;;;;4.38;1.33;;;13.30;83.40;;;;;;4971758;28;20117;-81
2021/11/13 00:04:04;;;;;;;3.00;1.63;;;13.30;83.40;;;;;;4977385;28;20490;-82
2021/11/13 00:06:31;;;;;;;6.05;1.95;;;13.30;83.40;;;;;;4969486;28;20043;-81
2021/11/13 00:08:56;;;;;;;3.88;1.98;;;13.20;83.20;;;;;;4969367;28;20082;-81
2021/11/13 00:11:25;;;;;;;2.97;1.63;;;13.20;83.20;;;;;;4968989;28;20026;-80
2021/11/13 00:13:54;;;;;;;3.33;1.30;;;13.20;83.20;;;;;;4979968;28;20035;-81
2021/11/13 00:16:20;;;;;;;4.00;1.45;;;13.30;83.30;;;;;;4972215;28;20416;-80
2021/11/13 00:18:47;;;;;;;3.03;1.45;;;13.30;83.30;;;;;;4971590;28;20145;-82
2021/11/13 00:21:14;;;;;;;5.45;1.52;;;13.20;83.20;;;;;;4971912;28;20034;-81
2021/11/13 00:23:41;;;;;;;3.90;1.67;;;13.30;83.30;;;;;;4971569;28;20089;-79
2021/11/13 00:26:07;;;;;;;4.13;2.25;;;13.30;83.40;;;;;;4988869;28;20053;-79
2021/11/13 00:28:33;;;;;;;3.50;1.48;;;13.20;83.20;;;;;;4984486;28;20589;-80
2021/11/13 00:30:59;;;;;;;2.15;1.50;;;13.20;83.20;;;;;;4969882;28;20085;-79
2021/11/13 00:33:25;;;;;;;4.78;2.58;;;13.30;83.40;;;;;;4969194;28;20027;-82
2021/11/13 00:35:55;;;;;;;5.43;2.45;;;13.20;83.20;;;;;;4969048;28;20073;-78
2021/11/13 00:38:21;;;;;;;2.83;1.48;;;13.20;83.20;;;;;;4971909;28;20225;-78
2021/11/13 00:40:47;;;;;;;3.05;1.30;;;13.20;83.20;;;;;;4970994;28;20031;-81
2021/11/13 00:43:14;;;;;;;4.05;1.42;;;13.30;83.40;;;;;;4988667;28;20030;-82
2021/11/13 00:45:40;;;;;;;3.03;1.67;;;13.30;83.30;;;;;;4988593;28;20033;-81
2021/11/13 00:48:09;;;;;;;3.88;1.40;;;13.20;83.20;;;;;;4987850;28;20405;-82
2021/11/13 00:50:35;;;;;;;2.25;1.55;;;13.30;83.30;;;;;;4988804;28;20869;-81
2021/11/13 00:53:01;;;;;;;4.50;1.50;;;13.30;83.30;;;;;;4989020;28;20144;-82
2021/11/13 00:55:27;;;;;;;2.22;1.25;;;13.30;83.30;;;;;;4988403;28;20220;-81
2021/11/13 00:57:53;;;;;;;3.78;1.15;;;13.30;83.30;;;;;;4987877;28;20107;-81
2021/11/13 01:00:20;;;;;;;2.83;1.35;;;13.30;83.20;;;;;;4970870;28;20026;-81
2021/11/13 01:02:47;;;;;;;4.35;2.15;;;13.20;83.00;;;;;;4969456;28;20042;-81
2021/11/13 01:05:14;;;;;;;2.42;1.10;;;13.30;83.20;;;;;;4970170;28;20042;-82
2021/11/13 01:07:48;;;;;;;3.85;1.40;;;13.20;83.00;;;;;;4987268;28;20038;-82
2021/11/13 01:10:18;;;;;;;1.85;1.20;;;13.20;82.90;;;;;;4954554;28;20372;-81
2021/11/13 01:12:45;;;;;;;3.60;1.35;;;13.20;82.90;;;;;;4987200;28;20034;-81
2021/11/13 01:15:13;;;;;;;2.70;1.10;;;13.20;82.90;;;;;;4987640;28;20038;-82
2021/11/13 01:17:39;;;;;;;3.42;1.38;;;13.20;82.90;;;;;;4987915;28;20038;-82
2021/11/13 01:20:08;;;;;;;4.82;1.90;;;13.10;82.70;;;;;;4988432;28;20030;-81
2021/11/13 01:22:36;;;;;;;3.72;1.38;;;13.10;82.80;;;;;;4970324;28;20476;-81
2021/11/13 01:25:03;;;;;;;2.03;1.27;;;13.10;82.80;;;;;;4987145;28;20053;-81
2021/11/13 01:27:29;;;;;;;3.85;1.10;;;13.10;82.80;;;;;;4970293;28;20039;-82
2021/11/13 01:29:55;;;;;;;7.60;1.48;;;13.10;82.80;;;;;;4970775;28;20030;-81
2021/11/13 01:32:25;;;;;;;2.85;1.40;;;13.00;82.70;;;;;;4970527;28;20034;-83
2021/11/13 01:34:51;;;;;;;3.65;1.10;;;13.10;82.90;;;;;;4970240;28;20042;-83
2021/11/13 01:37:17;;;;;;;4.35;2.80;;;13.00;82.70;;;;;;4987609;28;20435;-82
2021/11/13 01:39:43;;;;;;;2.47;1.83;;;13.00;82.80;;;;;;4987196;28;20030;-83
2021/11/13 01:42:10;;;;;;;2.70;1.20;;;13.00;82.80;;;;;;4987564;28;20598;-82
2021/11/13 01:44:36;;;;;;;3.38;1.48;;;13.00;82.80;;;;;;4987752;28;20508;-82
2021/11/13 01:47:05;;;;;;;3.38;1.55;;;13.00;82.80;;;;;;4988488;28;20340;-83
2021/11/13 01:49:31;;;;;;;1.80;1.10;;;13.00;82.90;;;;;;4988424;28;20038;-83
2021/11/13 01:51:57;;;;;;;2.40;1.55;;;13.10;83.00;;;;;;4970576;28;20027;-82
2021/11/13 01:54:24;;;;;;;3.03;1.55;;;13.00;82.90;;;;;;4970806;28;20089;-81
2021/11/13 01:56:51;;;;;;;2.40;1.67;;;13.10;83.10;;;;;;4954085;28;20033;-82
2021/11/13 01:59:19;;;;;;;2.97;1.23;;;13.00;82.90;;;;;;4954181;28;20031;-81
2021/11/13 02:01:45;;;;;;;3.25;1.10;;;13.10;83.00;;;;;;4969683;28;20037;-81
2021/11/13 02:04:11;;;;;;;1.75;1.23;;;13.10;83.00;;;;;;4970082;28;20474;-81
2021/11/13 02:06:37;;;;;;;1.92;1.17;;;13.00;82.80;;;;;;4969964;28;20058;-81
2021/11/13 02:09:06;;;;;;;2.42;1.60;;;13.00;82.80;;;;;;4987784;28;20449;-82
2021/11/13 02:11:33;;;;;;;3.47;1.20;;;13.00;82.80;;;;;;4969688;28;20034;-82
2021/11/13 02:13:59;;;;;;;2.35;1.23;;;13.00;82.80;;;;;;4969814;28;20061;-82
2021/11/13 02:16:26;;;;;;;2.33;1.70;;;13.00;82.70;;;;;;4969650;28;20042;-82
2021/11/13 02:18:52;;;;;;;1.48;1.30;;;13.00;82.70;;;;;;4987565;28;20081;-81
2021/11/13 02:21:19;;;;;;;3.05;1.40;;;12.90;82.50;;;;;;4970274;28;20137;-81
2021/11/13 02:23:48;;;;;;;4.45;1.50;;;12.90;82.50;;;;;;4970205;28;20036;-81
2021/11/13 02:26:14;;;;;;;1.90;0.90;;;12.90;82.50;;;;;;4987929;28;20026;-81
2021/11/13 02:28:41;;;;;;;2.47;1.13;;;12.90;82.50;;;;;;4969616;28;20505;-81
2021/11/13 02:31:09;;;;;;;1.90;0.95;;;12.90;82.50;;;;;;4987042;28;20556;-81
2021/11/13 02:33:35;;;;;;;2.47;1.10;;;12.80;82.30;;;;;;4988369;28;20129;-81
2021/11/13 02:36:04;;;;;;;2.90;1.48;;;12.90;82.50;;;;;;4989086;28;20038;-81
2021/11/13 02:38:33;;;;;;;4.60;1.35;;;12.80;82.40;;;;;;4971579;28;20054;-81
2021/11/13 02:41:02;;;;;;;3.75;1.13;;;12.80;82.40;;;;;;4988731;28;20045;-80
2021/11/13 02:43:30;;;;;;;2.00;1.00;;;12.80;82.40;;;;;;4988823;28;20482;-81
2021/11/13 02:45:59;;;;;;;1.95;0.88;;;12.80;82.40;;;;;;4989159;28;20036;-80
2021/11/13 02:48:27;;;;;;;3.55;1.30;;;12.80;82.50;;;;;;4992254;28;20317;-82
2021/11/13 02:50:53;;;;;;;2.78;1.35;;;12.80;82.50;;;;;;4973805;28;20022;-80
2021/11/13 02:53:24;;;;;;;2.58;0.90;;;12.70;82.30;;;;;;4974418;28;20512;-81
2021/11/13 02:55:52;;;;;;;3.50;1.75;;;12.70;82.30;;;;;;4942092;28;20042;-81
2021/11/13 02:58:20;;;;;;;2.42;1.10;;;12.70;82.40;;;;;;4991628;28;20389;-82
2021/11/13 03:00:50;;;;;;;2.30;1.10;;;12.70;82.40;;;;;;4974338;28;20053;-82
2021/11/13 03:03:17;;;;;;;1.33;0.80;;;12.70;82.40;;;;;;4991226;28;20043;-81
2021/11/13 03:05:56;;;;;;;1.92;0.88;;;12.70;82.40;;;;;;4974214;28;20486;-82
2021/11/13 03:08:26;;;;;;;1.40;1.08;;;12.70;82.50;;;;;;4991582;28;20126;-82
2021/11/13 03:10:56;;;;;;;2.35;1.45;;;12.70;82.50;;;;;;4976991;28;20031;-80
2021/11/13 03:13:23;;;;;;;1.83;1.00;;;12.60;82.30;;;;;;4977102;28;20116;-80
2021/11/13 03:15:50;;;;;;;2.45;0.95;;;12.60;82.30;;;;;;4994567;28;20069;-80
2021/11/13 03:18:17;;;;;;;4.03;1.45;;;12.60;82.40;;;;;;4995079;28;20030;-80
2021/11/13 03:20:43;;;;;;;2.40;1.15;;;12.70;82.60;;;;;;4977635;28;20100;-80
2021/11/13 03:23:09;;;;;;;2.28;1.00;;;12.60;82.40;;;;;;4977643;28;20580;-81
2021/11/13 03:25:40;;;;;;;2.08;1.20;;;12.60;82.50;;;;;;4977347;28;20217;-80
2021/11/13 03:28:10;;;;;;;2.30;1.30;;;12.60;82.50;;;;;;4994524;28;20031;-81
2021/11/13 03:30:38;;;;;;;3.38;1.27;;;12.60;82.50;;;;;;4993848;28;20023;-80
2021/11/13 03:33:04;;;;;;;2.78;1.42;;;12.60;82.50;;;;;;4977733;28;20485;-81
2021/11/13 03:35:31;;;;;;;1.67;0.90;;;12.60;82.50;;;;;;4960738;28;20042;-80
2021/11/13 03:38:05;;;;;;;2.33;1.20;;;12.70;83.20;;;;;;4994840;28;20031;-80
2021/11/13 03:40:33;;;;;;;3.33;1.77;;;12.70;82.70;;;;;;4994290;28;20030;-80
2021/11/13 03:42:59;;;;;;;2.60;1.00;;;12.70;82.80;;;;;;4976746;28;20030;-81
2021/11/13 03:45:25;;;;;;;2.83;1.13;;;12.60;82.60;;;;;;4994047;28;20030;-80
2021/11/13 03:47:52;;;;;;;2.70;0.90;;;12.70;82.70;;;;;;4994038;28;20066;-81
2021/11/13 03:50:18;;;;;;;4.38;1.13;;;12.70;82.70;;;;;;4976853;28;20069;-80
2021/11/13 03:52:44;;;;;;;8.82;1.52;;;12.70;82.70;;;;;;4994519;28;20061;-81
2021/11/13 03:55:11;;;;;;;1.73;0.95;;;12.70;82.70;;;;;;4994307;28;20445;-81
2021/11/13 03:57:37;;;;;;;2.95;0.90;;;12.70;82.70;;;;;;4976736;28;20029;-81
2021/11/13 04:00:06;;;;;;;2.63;1.40;;;12.70;82.70;;;;;;4976245;28;20175;-81
2021/11/13 04:02:40;;;;;;;3.70;1.10;;;12.70;82.70;;;;;;4977363;28;20502;-80
2021/11/13 04:05:06;;;;;;;4.05;1.05;;;12.70;82.70;;;;;;4976545;28;20026;-80
2021/11/13 04:07:32;;;;;;;2.10;1.20;;;12.70;82.60;;;;;;4994182;28;20030;-82
2021/11/13 04:09:58;;;;;;;5.35;1.08;;;12.70;82.60;;;;;;4976403;28;20081;-81
2021/11/13 04:12:24;;;;;;;2.58;1.00;;;12.70;82.60;;;;;;4976638;28;20425;-81
2021/11/13 04:14:50;;;;;;;2.03;1.08;;;12.70;82.60;;;;;;4993599;28;20548;-81
2021/11/13 04:17:16;;;;;;;4.22;2.55;;;12.70;82.60;;;;;;4994259;28;20026;-80
2021/11/13 04:19:42;;;;;;;2.45;0.82;;;12.70;82.60;;;;;;4993258;28;20076;-80
2021/11/13 04:22:08;;;;;;;2.85;1.10;;;12.70;82.60;;;;;;4993686;28;20050;-80
2021/11/13 04:24:35;;;;;;;1.80;0.98;;;12.70;82.60;;;;;;4993066;28;20042;-80
2021/11/13 04:27:01;;;;;;;2.45;1.27;;;12.70;82.60;;;;;;4993157;28;20034;-81
2021/11/13 04:29:27;;;;;;;3.22;1.15;;;12.70;82.60;;;;;;4976310;28;20069;-81
2021/11/13 04:31:53;;;;;;;3.30;1.00;;;12.70;82.60;;;;;;4993918;28;20064;-81
2021/11/13 04:34:22;;;;;;;2.85;1.30;;;12.70;82.60;;;;;;4976181;28;20529;-80
2021/11/13 04:36:53;;;;;;;1.48;0.90;;;12.70;82.60;;;;;;4976154;28;20153;-79
2021/11/13 04:39:22;;;;;;;1.45;1.10;;;12.70;82.60;;;;;;4992916;28;20041;-79
2021/11/13 04:41:49;;;;;;;1.52;0.95;;;12.70;82.60;;;;;;4993050;28;20540;-80
2021/11/13 04:44:15;;;;;;;3.03;1.70;;;12.70;82.60;;;;;;4992160;28;20518;-80
2021/11/13 04:46:41;;;;;;;3.50;0.98;;;12.70;82.60;;;;;;4976030;28;20037;-79
2021/11/13 04:49:08;;;;;;;1.98;0.82;;;12.70;82.60;;;;;;4993233;28;20421;-80
2021/11/13 04:51:40;;;;;;;3.47;1.10;;;12.80;83.30;;;;;;4960382;28;20030;-79
2021/11/13 04:54:06;;;;;;;2.35;0.90;;;12.70;82.60;;;;;;4993066;28;20133;-81
2021/11/13 04:56:32;;;;;;;2.72;0.93;;;12.80;82.70;;;;;;4992631;28;20126;-80
2021/11/13 04:58:58;;;;;;;2.55;1.00;;;12.70;82.50;;;;;;4993090;28;20026;-80
2021/11/13 05:01:24;;;;;;;3.28;1.65;;;12.70;82.50;;;;;;4992638;28;20039;-80
2021/11/13 05:03:51;;;;;;;2.67;0.88;;;12.80;82.70;;;;;;4975076;28;20138;-79
2021/11/13 05:06:18;;;;;;;2.40;0.95;;;12.80;82.70;;;;;;4992803;28;20062;-80
2021/11/13 05:08:44;;;;;;;2.05;1.40;;;12.70;82.50;;;;;;4992795;28;20041;-80
2021/11/13 05:11:10;;;;;;;2.72;1.15;;;12.80;82.60;;;;;;4992517;28;20030;-80
2021/11/13 05:13:36;;;;;;;1.30;0.85;;;12.70;82.50;;;;;;4992684;28;20026;-80
2021/11/13 05:16:02;;;;;;;1.05;0.75;;;12.70;82.40;;;;;;4975701;28;20603;-80
2021/11/13 05:18:28;;;;;;;0.95;0.70;;;12.70;82.40;;;;;;4992608;28;20506;-81
2021/11/13 05:20:54;;;;;;;1.38;0.70;;;12.70;82.40;;;;;;4974801;28;20034;-81
2021/11/13 05:23:20;;;;;;;1.30;0.88;;;12.70;82.40;;;;;;4975480;28;20030;-82
2021/11/13 05:25:46;;;;;;;1.88;1.08;;;12.70;82.40;;;;;;4959285;28;20085;-81
2021/11/13 05:28:12;;;;;;;4.72;1.42;;;12.70;82.30;;;;;;4975117;28;20038;-82
2021/11/13 05:30:38;;;;;;;1.63;0.88;;;12.70;82.30;;;;;;4975502;28;20030;-81
2021/11/13 05:33:04;;;;;;;3.05;0.93;;;12.70;82.30;;;;;;4991856;28;20488;-83
2021/11/13 05:35:30;;;;;;;1.17;0.90;;;12.60;82.20;;;;;;4992670;28;20386;-83
2021/11/13 05:37:56;;;;;;;2.10;1.15;;;12.70;82.90;;;;;;4975646;28;20026;-82
2021/11/13 05:40:23;;;;;;;1.95;1.00;;;12.60;82.20;;;;;;4958934;28;20031;-83
2021/11/13 05:42:49;;;;;;;8.63;2.17;;;12.60;82.20;;;;;;4993018;28;20049;-82
2021/11/13 05:45:15;;;;;;;2.58;1.17;;;12.60;82.20;;;;;;4993024;28;20406;-83
2021/11/13 05:47:43;;;;;;;1.90;1.00;;;12.60;82.20;;;;;;4968975;28;20175;-83
2021/11/13 05:50:13;;;;;;;1.52;0.85;;;12.60;82.20;;;;;;4952605;28;20030;-83
2021/11/13 05:52:41;;;;;;;1.90;1.10;;;12.60;82.30;;;;;;4970015;28;20086;-83
2021/11/13 05:55:08;;;;;;;1.33;0.85;;;12.60;82.20;;;;;;4969875;28;20493;-82
2021/11/13 05:57:34;;;;;;;1.42;0.77;;;12.60;82.20;;;;;;4972022;28;20041;-84
2021/11/13 06:00:00;;;;;;;1.23;0.93;;;12.60;82.20;;;;;;4988969;28;20039;-81
2021/11/13 06:02:26;;;;;;;1.00;0.88;;;12.60;82.30;;;;;;4981912;28;20486;-81
2021/11/13 06:04:52;;;;;;;1.40;0.93;;;12.60;82.30;;;;;;4948589;29;20047;-81
2021/11/13 06:07:18;;;;;;;1.85;1.00;;;12.60;82.80;;;;;;4947008;28;20035;-81
2021/11/13 06:09:44;;;;;;;2.08;1.25;;;12.60;82.30;;;;;;4968456;28;20123;-81
2021/11/13 06:12:10;;;;;;;1.98;0.95;;;12.60;82.30;;;;;;4950211;28;20515;-82
2021/11/13 06:14:36;;;;;;;2.17;1.08;;;12.60;82.30;;;;;;4966761;28;20071;-81
2021/11/13 06:17:03;;;;;;;1.85;0.90;;;12.50;82.10;;;;;;4949787;28;20023;-80
2021/11/13 06:19:29;;;;;;;1.83;1.20;;;12.60;82.30;;;;;;4967474;28;20253;-81
2021/11/13 06:21:55;;;;;;;1.05;0.95;;;12.50;82.10;;;;;;4967433;28;20390;-82
2021/11/13 06:24:21;;;;;;;1.85;1.10;;;12.60;82.30;;;;;;4950684;28;20045;-81
2021/11/13 06:26:55;;;;;;;2.03;0.90;;;12.60;82.30;;;;;;4967519;28;20033;-81
2021/11/13 06:29:21;;;;;;;2.08;1.45;;;12.60;82.30;;;;;;4967324;28;20126;-82
2021/11/13 06:31:48;;;;;;;1.38;0.90;;;12.60;82.30;;;;;;4966890;28;20022;-81
2021/11/13 06:34:13;;;;;;;1.73;1.10;;;12.60;82.30;;;;;;4985978;28;20041;-81
2021/11/13 06:36:39;;;;;;;2.33;0.98;;;12.60;82.30;;;;;;4986829;28;20053;-81
2021/11/13 06:39:07;;;;;;;1.90;0.90;;;12.60;82.30;;;;;;4968676;28;20038;-81
2021/11/13 06:41:35;;;;;;;2.75;0.90;;;12.60;82.30;;;;;;4986488;28;20034;-81
2021/11/13 06:44:06;;;;;;;3.22;0.98;;;12.60;82.30;;;;;;4971408;28;20038;-80
2021/11/13 06:46:32;;;;;;;1.67;0.95;;;12.60;82.20;;;;;;4990288;28;20037;-80
2021/11/13 06:48:58;;;;;;;1.58;0.98;;;12.60;82.20;;;;;;4956324;28;20034;-81
2021/11/13 06:51:26;;;;;;;1.08;0.98;;;12.60;82.20;;;;;;4972705;28;20093;-81
2021/11/13 06:53:52;;;;;;;1.35;0.85;;;12.70;82.40;;;;;;4972537;28;20034;-81
2021/11/13 06:56:18;;;;;;;4.15;1.30;;;12.70;82.40;;;;;;4989744;28;20501;-84
2021/11/13 06:58:48;;;;;;;1.67;0.75;;;12.60;82.20;;;;;;4960481;28;20385;-83
2021/11/13 07:01:14;;;;;;;2.10;1.10;;;12.70;82.40;;;;;;4952895;28;20178;-82
2021/11/13 07:03:40;;;;;;;2.53;1.10;;;12.70;82.30;;;;;;4968883;28;20409;-82
2021/11/13 07:06:06;;;;;;;2.85;1.23;;;12.70;82.50;;;;;;4989482;28;20026;-82
2021/11/13 07:08:32;;;;;;;1.67;1.10;;;12.70;82.50;;;;;;4989832;28;20037;-83
2021/11/13 07:10:58;;;;;;;2.45;1.05;;;12.70;82.50;;;;;;4972419;28;20066;-82
2021/11/13 07:13:26;;;;;;;1.52;0.82;;;12.70;82.50;;;;;;4972145;28;20030;-84
2021/11/13 07:15:53;;;;;;;1.95;0.90;;;12.70;82.50;;;;;;4990245;28;20046;-82
2021/11/13 07:18:19;;;;;;;1.98;1.00;;;12.70;82.40;;;;;;4990286;28;20315;-83
2021/11/13 07:20:55;;;;;;;2.05;1.10;;;12.70;82.40;;;;;;4989692;28;20037;-84
2021/11/13 07:23:21;;;;;;;2.53;1.00;;;12.70;82.40;;;;;;4955361;28;20034;-85
2021/11/13 07:25:48;;;;;;;2.50;1.30;;;12.80;82.50;;;;;;4972481;28;20037;-84
2021/11/13 07:28:18;;;;;;;1.90;1.50;;;12.80;83.00;;;;;;4972929;28;20026;-85
2021/11/13 07:30:47;;;;;;;1.85;0.90;;;12.70;82.30;;;;;;4956220;28;20105;-84
2021/11/13 07:33:13;;;;;;;3.08;1.55;;;12.70;82.30;;;;;;4955925;28;20375;-84
2021/11/13 07:35:42;;;;;;;2.63;1.35;;;12.80;82.50;;;;;;4971872;28;20092;-84
2021/11/13 07:38:09;;;;;;;2.97;1.23;;;12.80;82.80;;;;;;4989945;28;20026;-86
2021/11/13 07:40:37;;;;;;;2.05;1.20;;;12.80;82.90;;;;;;4972426;28;20045;-85
2021/11/13 07:43:06;;;;;;;1.95;1.13;;;12.80;82.90;;;;;;4989044;28;20092;-82
2021/11/13 07:45:32;;;;;;;2.53;1.00;;;12.90;83.10;;;;;;4972739;28;20034;-85
2021/11/13 07:47:59;;;;;;;2.65;0.95;;;12.90;83.00;;;;;;4972400;28;20301;-83
2021/11/13 07:50:25;;;;;;;4.05;1.63;;;12.90;83.00;;;;;;4971622;28;20034;-86
2021/11/13 07:52:51;;;;;;;1.98;1.08;;;13.00;83.10;;;;;;4989715;28;20023;-82
2021/11/13 07:55:18;;;;;;;1.65;1.08;;;12.90;82.90;;;;;;4970677;28;20049;-83
2021/11/13 07:57:46;;;;;;;2.97;0.85;;;13.00;83.10;;;;;;4972174;28;20022;-85
2021/11/13 08:00:15;;;;;;;1.48;1.10;;;13.00;83.00;;;;;;4971627;28;20034;-84
2021/11/13 08:02:41;;;;;;;3.03;1.27;;;13.00;83.00;;;;;;4988752;28;20088;-80
2021/11/13 08:05:09;;;;;;;2.80;1.45;;;13.00;83.00;;;;;;4955265;28;20125;-80
2021/11/13 08:07:35;;;;;;;3.38;1.42;;;13.00;83.20;;;;;;4988824;28;20393;-85
2021/11/13 08:10:05;;;;;;;2.63;1.50;;;13.00;83.50;;;;;;4989195;28;20470;-82
2021/11/13 08:12:31;;;;;;;2.08;1.17;;;13.10;83.80;;;;;;4966718;28;20113;-82
2021/11/13 08:14:58;;;;;;;4.60;1.40;;;13.20;84.10;;;;;;4952258;28;20035;-80
2021/11/13 08:17:24;;;;;;;1.98;1.25;;;13.20;84.10;;;;;;4952345;28;20489;-81
2021/11/13 08:19:50;;;;;;;3.33;1.38;;;13.20;84.10;;;;;;4951595;28;20517;-86
2021/11/13 08:22:17;;;;;;;2.15;1.23;;;13.20;84.00;;;;;;4936707;28;20031;-87
2021/11/13 08:24:43;;;;;;;2.95;1.73;;;13.30;84.10;;;;;;4937059;28;20027;-83
2021/11/13 08:27:09;;;;;;;3.45;1.35;;;13.40;84.20;;;;;;4951947;28;20367;-84
2021/11/13 08:29:36;;;;;;;1.50;1.00;;;13.40;84.10;;;;;;4968593;28;20203;-85
2021/11/13 08:32:04;;;;;;;2.55;1.10;;;13.40;84.10;;;;;;4969115;28;20426;-84
2021/11/13 08:34:30;;;;;;;2.70;1.27;;;13.40;84.00;;;;;;4969223;28;20034;-83
2021/11/13 08:36:56;;;;;;;3.53;1.35;;;13.50;84.10;;;;;;4951485;28;20490;-82
2021/11/13 08:39:23;;;;;;;2.97;1.60;;;13.50;84.00;;;;;;4968272;28;20027;-83
2021/11/13 08:41:49;;;;;;;2.38;1.05;;;13.50;83.90;;;;;;4952443;28;20034;-82
2021/11/13 08:44:15;;;;;;;1.40;0.90;;;13.50;83.80;;;;;;4969380;28;20066;-83
2021/11/13 08:46:41;;;;;;;2.15;1.10;;;13.50;83.80;;;;;;4969434;28;20033;-84
2021/11/13 08:49:08;;;;;;;2.58;1.60;;;13.60;83.90;;;;;;4958725;28;20105;-83
2021/11/13 08:51:34;;;;;;;1.10;0.90;;;13.60;83.90;;;;;;4951295;28;20126;-82
2021/11/13 08:54:00;;;;;;;1.10;1.00;;;13.60;83.80;;;;;;4934739;28;20034;-83
2021/11/13 08:56:29;;;;;;;1.60;0.82;;;13.70;83.90;;;;;;4968683;28;20057;-83
2021/11/13 08:58:57;;;;;;;2.65;1.48;;;13.70;83.70;;;;;;4968502;28;20031;-82
2021/11/13 09:01:26;;;;;;;1.35;1.05;;;13.80;83.80;;;;;;4950951;28;20061;-84
2021/11/13 09:03:54;;;;;;;1.20;1.00;;;13.80;83.70;;;;;;4985449;28;20056;-85
2021/11/13 09:06:23;;;;;;;2.22;1.25;;;13.80;83.60;;;;;;4987625;28;20438;-82
2021/11/13 09:08:50;;;;;;;1.92;1.20;;;13.90;83.70;;;;;;4954405;28;20142;-83
2021/11/13 09:11:22;;;;;;;2.38;0.90;;;13.90;83.60;;;;;;4987127;28;20034;-83
2021/11/13 09:13:51;;;;;;;1.65;1.13;;;13.90;83.50;;;;;;4986612;28;20118;-82
2021/11/13 09:16:17;;;;;;;1.92;1.10;;;13.90;83.40;;;;;;4970019;28;20030;-83
2021/11/13 09:18:45;;;;;;;2.00;1.10;;;13.90;83.40;;;;;;4970171;28;20401;-84
2021/11/13 09:21:12;;;;;;;1.45;1.08;;;13.90;83.30;;;;;;4970290;28;20165;-83
2021/11/13 09:23:39;;;;;;;3.42;1.08;;;14.00;83.50;;;;;;4987290;28;20034;-82
2021/11/13 09:26:06;;;;;;;1.75;1.25;;;13.90;83.30;;;;;;4987206;28;20069;-83
2021/11/13 09:28:33;;;;;;;2.10;0.90;;;14.00;83.40;;;;;;4986646;28;20034;-84
2021/11/13 09:31:00;;;;;;;1.40;0.70;;;14.00;83.40;;;;;;4970237;28;20385;-86
2021/11/13 09:33:28;;;;;;;1.90;1.10;;;14.00;83.30;;;;;;4987196;28;20034;-85
2021/11/13 09:35:54;;;;;;;2.33;1.48;;;14.00;83.30;;;;;;4987054;28;20515;-83
2021/11/13 09:38:29;;;;;;;2.08;1.10;;;14.10;83.30;;;;;;4987481;28;20046;-83
2021/11/13 09:40:57;;;;;;;2.83;1.25;;;14.10;83.30;;;;;;4987121;28;20422;-83
2021/11/13 09:43:26;;;;;;;1.67;1.05;;;14.10;83.20;;;;;;4986967;28;20066;-83
2021/11/13 09:45:55;;;;;;;2.08;1.13;;;14.20;83.20;;;;;;4987214;28;20042;-83
2021/11/13 09:48:21;;;;;;;1.88;1.00;;;14.20;83.20;;;;;;4979102;28;20482;-84
2021/11/13 09:50:50;;;;;;;2.15;0.93;;;14.10;83.00;;;;;;4967926;28;20510;-83
2021/11/13 09:53:18;;;;;;;1.60;0.90;;;14.20;83.20;;;;;;4968109;28;20031;-83
2021/11/13 09:55:46;;;;;;;3.53;0.90;;;14.20;83.10;;;;;;4967628;28;20047;-83
2021/11/13 09:58:13;;;;;;;2.50;1.15;;;14.30;83.20;;;;;;4973848;28;20031;-83
2021/11/13 10:00:42;;;;;;;1.58;0.90;;;14.40;83.30;;;;;;4969674;28;20114;-84
2021/11/13 10:03:09;;;;;;;2.75;1.00;;;14.40;83.10;;;;;;4969167;28;20515;-83
2021/11/13 10:05:36;;;;;;;1.63;0.90;;;14.50;83.20;;;;;;4952981;28;20082;-83
2021/11/13 10:08:04;;;;;;;2.33;1.02;;;14.50;83.00;;;;;;4953483;28;20042;-83
2021/11/13 10:10:32;;;;;;;2.20;1.15;;;14.60;83.10;;;;;;4969184;28;20415;-84
2021/11/13 10:12:58;;;;;;;1.42;1.00;;;14.60;83.00;;;;;;4953604;28;20354;-83
2021/11/13 10:15:36;;;;;;;1.08;0.90;;;14.70;83.00;;;;;;4986663;28;20674;-83
2021/11/13 10:18:21;;;;;;;1.05;0.60;;;14.70;82.90;;;;;;4987203;28;20060;-83
2021/11/13 10:20:51;;;;;;;1.63;0.80;;;14.70;82.70;;;;;;4957478;28;20493;-83
2021/11/13 10:23:41;;;;;;;5.57;2.05;;;14.80;82.80;;;;;;4957109;28;20057;-82
2021/11/13 10:26:07;;;;;;;1.73;0.80;;;14.80;82.70;;;;;;4990821;28;20030;-81
2021/11/13 10:28:42;;;;;;;1.85;0.70;;;14.80;82.60;;;;;;4990243;28;20029;-82
2021/11/13 10:31:29;;;;;;;1.98;1.00;;;14.80;82.50;;;;;;4989255;28;20113;-82
2021/11/13 10:33:59;;;;;;;1.83;1.08;;;14.90;82.60;;;;;;4990201;28;20389;-82
2021/11/13 10:36:28;;;;;;;1.98;1.00;;;14.80;82.40;;;;;;4935019;29;20560;-84
2021/11/13 10:39:03;;;;;;;1.45;0.98;;;14.90;82.60;;;;;;4940322;28;20038;-83
2021/11/13 10:41:29;;;;;;;1.65;1.00;;;14.90;82.50;;;;;;4953503;28;20498;-84
2021/11/13 10:43:55;;;;;;;1.23;0.65;;;14.90;82.40;;;;;;4983524;28;20250;-83
2021/11/13 10:46:23;;;;;;;1.38;0.95;;;15.10;82.60;;;;;;4973200;28;20133;-82
2021/11/13 10:48:58;;;;;;;1.80;0.77;;;15.00;82.40;;;;;;4973108;28;20084;-83
2021/11/13 10:51:30;;;;;;;2.17;1.30;;;15.10;82.40;;;;;;4967015;28;20038;-83
2021/11/13 10:54:05;;;;;;;1.17;1.05;;;15.20;82.50;;;;;;4952989;28;20103;-83
2021/11/13 10:56:36;;;;;;;1.02;0.80;;;15.20;82.30;;;;;;4953532;28;20092;-83
2021/11/13 10:59:04;;;;;;;2.17;1.50;;;15.30;82.40;;;;;;4937578;28;20450;-83
2021/11/13 11:01:38;;;;;;;1.38;0.80;;;15.30;82.30;;;;;;4969877;28;20042;-83
2021/11/13 11:04:26;;;;;;;1.83;0.80;;;15.30;82.20;;;;;;4989151;28;20062;-83
2021/11/13 11:07:04;;;;;;;1.52;1.20;;;15.40;82.30;;;;;;4989394;28;20038;-83
2021/11/13 11:09:33;;;;;;;1.67;0.80;;;15.50;82.40;;;;;;4989978;28;20125;-82
2021/11/13 11:12:12;;;;;;;1.25;0.85;;;15.50;82.20;;;;;;4989921;28;20046;-83
2021/11/13 11:14:43;;;;;;;2.88;1.30;;;15.60;82.30;;;;;;4989250;28;20042;-83
2021/11/13 11:17:13;;;;;;;1.33;0.95;;;15.60;82.00;;;;;;4989341;28;20026;-83
2021/11/13 11:19:42;;;;;;;1.25;0.90;;;15.70;82.20;;;;;;4989399;28;20029;-82
2021/11/13 11:22:16;;;;;;;2.45;1.10;;;15.70;82.10;;;;;;4971979;28;20034;-83
2021/11/13 11:24:41;;;;;;;1.17;1.00;;;15.70;82.00;;;;;;4990321;28;20101;-83
2021/11/13 11:27:16;;;;;;;2.28;1.23;;;15.80;82.10;;;;;;4972283;28;20490;-83
2021/11/13 11:29:52;;;;;;;1.55;0.90;;;15.80;82.00;;;;;;4987024;28;20478;-83
2021/11/13 11:32:22;;;;;;;1.00;0.95;;;15.90;82.00;;;;;;4971732;28;20035;-84
2021/11/13 11:34:50;;;;;;;3.75;1.15;;;15.90;81.90;;;;;;4989333;28;20478;-83
2021/11/13 11:37:31;;;;;;;1.45;1.35;;;16.00;82.00;;;;;;4989488;28;20389;-82
2021/11/13 11:40:01;;;;;;;1.33;0.82;;;16.00;81.70;;;;;;4984535;28;20366;-84
2021/11/13 11:42:28;;;;;;;1.90;1.05;;;16.10;81.80;;;;;;4955447;28;20030;-83
2021/11/13 11:44:58;;;;;;;3.38;1.15;;;16.20;81.70;;;;;;4971745;28;20137;-82
2021/11/13 11:47:26;;;;;;;1.85;0.70;;;16.20;81.60;;;;;;4971874;28;20073;-83
2021/11/13 11:49:54;;;;;;;1.23;0.68;;;16.30;81.60;;;;;;4956643;28;20210;-83
2021/11/13 11:52:23;;;;;;;1.77;0.90;;;16.40;81.70;;;;;;4989399;28;20030;-83
2021/11/13 11:54:50;;;;;;;1.02;0.88;;;16.40;81.60;;;;;;4972514;28;20042;-83
2021/11/13 11:57:18;;;;;;;1.52;0.80;;;16.40;81.40;;;;;;4971857;28;20033;-83
2021/11/13 11:59:45;;;;;;;1.23;0.70;;;16.40;81.30;;;;;;4971206;28;20034;-83
2021/11/13 12:02:18;;;;;;;1.52;0.95;;;16.50;81.40;;;;;;4970917;28;20133;-83
2021/11/13 12:04:47;;;;;;;1.00;0.90;;;16.50;81.30;;;;;;4988812;28;20049;-83
2021/11/13 12:07:28;;;;;;;1.45;0.95;;;16.40;81.10;;;;;;4989051;28;20037;-83
2021/11/13 12:10:04;;;;;;;2.60;0.88;;;16.50;81.20;;;;;;4989564;28;20037;-82
2021/11/13 12:12:31;;;;;;;2.55;0.70;;;16.40;81.00;;;;;;4990080;28;20034;-82
2021/11/13 12:15:12;;;;;;;1.55;0.95;;;16.40;81.10;;;;;;4988605;28;20042;-82
2021/11/13 12:17:38;;;;;;;1.73;1.10;;;16.40;81.00;;;;;;4989528;28;20049;-83
2021/11/13 12:20:10;;;;;;;1.10;0.80;;;16.40;81.10;;;;;;4972091;28;20033;-83
2021/11/13 12:22:47;;;;;;;1.20;0.95;;;16.30;80.90;;;;;;4993017;28;20038;-82
2021/11/13 12:25:14;;;;;;;1.65;0.75;;;16.30;80.80;;;;;;4997027;28;20034;-84
2021/11/13 12:27:41;;;;;;;3.28;1.77;;;16.30;80.80;;;;;;4991753;28;20026;-88
2021/11/13 12:30:08;;;;;;;2.55;0.95;;;16.30;80.70;;;;;;4993343;28;20042;-83
2021/11/13 12:32:40;;;;;;;1.48;0.85;;;16.30;80.70;;;;;;4964468;28;20143;-91
2021/11/13 12:35:07;;;;;;;3.25;1.13;;;16.30;80.60;;;;;;4965202;28;20050;-90
2021/11/13 12:37:33;;;;;;;2.90;0.85;;;16.30;80.60;;;;;;4959848;28;20026;-81
2021/11/13 12:39:59;;;;;;;0.90;0.70;;;16.30;80.60;;;;;;4993044;28;20038;-82
2021/11/13 12:42:27;;;;;;;9.07;2.55;;;16.20;80.40;;;;;;4963321;28;20548;-82
2021/11/13 12:45:01;;;;;;;1.60;0.90;;;16.20;80.40;;;;;;4973302;28;20036;-81
2021/11/13 12:47:30;;;;;;;2.10;0.88;;;16.20;80.30;;;;;;4990890;28;20034;-81
2021/11/13 12:49:57;;;;;;;2.03;0.80;;;16.20;80.40;;;;;;4988429;28;20058;-80
2021/11/13 12:52:25;;;;;;;1.20;1.10;;;16.20;80.30;;;;;;4982619;28;20566;-81